Time;durP1;ratioP1;P1;durP2;ratioP2;P2;SDS_P1;SDS_P2;PMS_P1;PMS_P2;Temp;Humidity;BMP_temperature;BMP_pressure;BME280_temperature;BME280_humidity;BME280_pressure;Samples;Min_cycle;Max_cycle;Signal;HPM_P1;HPM_P2
2023/06/24 00:01:13;;;;;;;72.93;10.60;;;21.40;49.50;;;;;;5076136;28;20204;-78
2023/06/24 00:03:39;;;;;;;71.43;11.10;;;21.30;50.30;;;;;;5076893;28;20160;-79
2023/06/24 00:06:04;;;;;;;73.13;11.53;;;21.30;49.20;;;;;;5076174;28;20530;-79
2023/06/24 00:08:34;;;;;;;73.30;13.00;;;21.30;50.00;;;;;;5057782;28;20203;-79
2023/06/24 00:11:03;;;;;;;74.80;11.87;;;21.30;51.50;;;;;;5075640;28;20152;-79
2023/06/24 00:13:28;;;;;;;71.70;11.00;;;21.20;52.80;;;;;;5076011;28;20394;-78
2023/06/24 00:15:55;;;;;;;73.17;12.40;;;21.20;52.60;;;;;;5075547;28;20425;-79
2023/06/24 00:18:24;;;;;;;71.23;11.90;;;21.20;53.20;;;;;;5075638;28;20184;-79
2023/06/24 00:20:50;;;;;;;70.27;11.63;;;21.20;53.60;;;;;;5057316;28;20459;-79
2023/06/24 00:23:24;;;;;;;71.93;13.20;;;21.20;52.60;;;;;;5075694;28;20409;-79
2023/06/24 00:25:54;;;;;;;73.10;12.50;;;21.20;52.00;;;;;;5076332;28;20426;-79
2023/06/24 00:28:20;;;;;;;74.63;12.60;;;21.10;55.50;;;;;;5057640;28;20433;-79
2023/06/24 00:30:47;;;;;;;75.93;13.17;;;21.10;56.60;;;;;;5075945;28;20402;-78
2023/06/24 00:33:13;;;;;;;72.93;13.30;;;21.10;55.90;;;;;;5075768;28;20213;-79
2023/06/24 00:35:39;;;;;;;74.90;13.03;;;21.00;56.40;;;;;;5075429;28;20398;-79
2023/06/24 00:38:05;;;;;;;74.67;12.87;;;21.00;58.40;;;;;;5059682;28;20446;-79
2023/06/24 00:40:31;;;;;;;73.17;13.83;;;21.00;58.20;;;;;;5079910;28;20410;-79
2023/06/24 00:42:58;;;;;;;75.40;12.43;;;21.00;60.10;;;;;;5079518;28;20398;-79
2023/06/24 00:45:24;;;;;;;73.50;14.43;;;20.90;60.80;;;;;;5079527;28;20445;-79
2023/06/24 00:47:51;;;;;;;74.40;13.70;;;20.90;61.70;;;;;;5079628;28;20429;-79
2023/06/24 00:50:17;;;;;;;76.70;13.83;;;20.90;60.40;;;;;;5079200;28;20489;-79
2023/06/24 00:52:43;;;;;;;72.67;14.93;;;20.90;62.60;;;;;;5079485;28;20437;-79
2023/06/24 00:55:13;;;;;;;70.67;13.23;;;20.90;61.60;;;;;;5079903;28;20471;-79
2023/06/24 00:57:41;;;;;;;71.13;12.60;;;20.90;61.50;;;;;;5061010;28;20445;-79
2023/06/24 01:00:14;;;;;;;72.40;14.07;;;20.80;63.40;;;;;;5079230;28;20973;-79
2023/06/24 01:02:42;;;;;;;74.00;13.97;;;20.80;63.50;;;;;;5061377;28;20897;-79
2023/06/24 01:05:09;;;;;;;72.50;12.90;;;20.70;66.60;;;;;;5079127;28;20438;-79
2023/06/24 01:07:36;;;;;;;70.77;12.40;;;20.70;65.40;;;;;;5078657;28;20445;-78
2023/06/24 01:10:06;;;;;;;73.07;14.20;;;20.70;64.70;;;;;;5079399;28;20423;-79
2023/06/24 01:12:38;;;;;;;71.20;13.03;;;20.70;65.90;;;;;;5079188;28;20412;-79
2023/06/24 01:15:06;;;;;;;71.50;13.80;;;20.70;67.40;;;;;;5061864;28;20884;-79
2023/06/24 01:17:50;;;;;;;74.67;15.03;;;20.70;67.40;;;;;;5079022;28;20416;-79
2023/06/24 01:20:35;;;;;;;72.60;12.50;;;20.60;70.60;;;;;;5060818;28;20928;-79
2023/06/24 01:23:30;;;;;;;73.87;12.93;;;20.60;73.20;;;;;;5065133;28;20410;-79
2023/06/24 01:26:10;;;;;;;80.50;14.27;;;20.60;74.00;;;;;;5061044;28;20491;-78
2023/06/24 01:29:01;;;;;;;73.97;15.50;;;20.60;74.70;;;;;;5078655;28;20413;-79
2023/06/24 01:31:49;;;;;;;74.67;13.60;;;20.60;74.60;;;;;;5078577;28;20481;-79
2023/06/24 01:34:26;;;;;;;73.40;13.30;;;20.50;77.10;;;;;;5078943;28;20371;-79
2023/06/24 01:37:23;;;;;;;73.40;15.37;;;20.50;76.70;;;;;;5060782;28;20398;-79
2023/06/24 01:40:15;;;;;;;76.17;14.77;;;20.50;77.90;;;;;;5078825;28;20385;-79
2023/06/24 01:42:44;;;;;;;76.47;15.67;;;20.50;78.30;;;;;;5078669;28;20379;-79
2023/06/24 01:45:20;;;;;;;74.27;14.70;;;20.50;80.70;;;;;;5078822;28;20981;-79
2023/06/24 01:47:48;;;;;;;74.90;17.37;;;20.50;77.90;;;;;;5078790;28;20993;-79
2023/06/24 01:50:16;;;;;;;75.97;16.30;;;20.40;78.10;;;;;;5078858;28;20403;-79
2023/06/24 01:52:44;;;;;;;79.50;18.37;;;20.40;78.70;;;;;;5078265;28;20399;-79
2023/06/24 01:55:13;;;;;;;74.73;19.10;;;20.40;81.60;;;;;;5078410;28;20439;-79
2023/06/24 01:57:41;;;;;;;76.67;18.77;;;20.40;85.00;;;;;;5078261;28;20499;-79
2023/06/24 02:00:11;;;;;;;83.57;20.93;;;20.30;84.90;;;;;;5060162;28;20414;-79
2023/06/24 02:02:38;;;;;;;81.70;19.73;;;20.30;85.20;;;;;;5059908;28;20415;-79
2023/06/24 02:05:06;;;;;;;76.87;20.47;;;20.30;89.60;;;;;;5077828;28;20445;-79
2023/06/24 02:07:34;;;;;;;75.97;21.63;;;20.30;89.70;;;;;;5077883;28;20422;-78
2023/06/24 02:10:00;;;;;;;74.97;18.47;;;20.30;88.70;;;;;;5078135;28;20535;-78
2023/06/24 02:12:27;;;;;;;78.47;25.00;;;20.20;89.60;;;;;;5077863;28;20392;-79
2023/06/24 02:14:55;;;;;;;76.50;22.10;;;20.20;91.50;;;;;;5078374;28;20922;-79
2023/06/24 02:17:23;;;;;;;78.77;23.37;;;20.20;91.80;;;;;;5060112;28;20443;-79
2023/06/24 02:19:50;;;;;;;79.10;24.60;;;20.20;92.20;;;;;;5077550;28;20450;-79
2023/06/24 02:22:17;;;;;;;76.17;24.47;;;20.20;92.90;;;;;;5077960;28;20489;-79
2023/06/24 02:24:44;;;;;;;75.87;22.17;;;20.20;93.10;;;;;;5077652;28;20448;-79
2023/06/24 02:27:11;;;;;;;80.00;23.50;;;20.20;92.50;;;;;;5077302;28;20445;-78
2023/06/24 02:29:38;;;;;;;76.03;21.77;;;20.20;91.90;;;;;;5077691;28;20451;-79
2023/06/24 02:32:03;;;;;;;76.83;20.77;;;20.10;92.80;;;;;;5077904;28;20402;-79
2023/06/24 02:34:29;;;;;;;87.07;23.27;;;20.10;92.30;;;;;;5077725;28;20403;-79
2023/06/24 02:36:55;;;;;;;75.67;23.20;;;20.10;94.00;;;;;;5077228;28;20408;-78
2023/06/24 02:39:22;;;;;;;77.47;22.77;;;20.10;93.80;;;;;;5077155;28;20168;-79
2023/06/24 02:41:49;;;;;;;77.70;22.90;;;20.10;93.30;;;;;;5059767;28;20172;-79
2023/06/24 02:44:15;;;;;;;75.90;22.87;;;20.10;93.80;;;;;;5077281;28;20408;-79
2023/06/24 02:46:43;;;;;;;77.50;24.90;;;20.10;93.30;;;;;;5059348;28;20904;-78
2023/06/24 02:49:12;;;;;;;76.77;23.20;;;20.10;93.10;;;;;;5059324;28;20504;-78
2023/06/24 02:51:39;;;;;;;80.90;18.87;;;20.00;93.70;;;;;;5076838;28;20403;-79
2023/06/24 02:54:05;;;;;;;74.67;19.80;;;19.90;95.30;;;;;;5077460;28;20481;-78
2023/06/24 02:56:32;;;;;;;73.87;20.57;;;19.90;96.20;;;;;;5077133;28;20982;-79
2023/06/24 02:58:58;;;;;;;76.20;20.63;;;19.90;96.10;;;;;;5059154;28;20480;-78
2023/06/24 03:01:25;;;;;;;75.10;21.00;;;19.90;96.50;;;;;;5076897;28;20412;-79
2023/06/24 03:03:55;;;;;;;75.60;21.93;;;19.90;95.00;;;;;;5059143;28;20452;-79
2023/06/24 03:06:22;;;;;;;74.83;21.23;;;19.80;96.30;;;;;;5076859;28;20462;-79
2023/06/24 03:08:49;;;;;;;74.70;16.17;;;19.80;98.60;;;;;;5076984;28;20513;-78
2023/06/24 03:11:15;;;;;;;73.87;15.80;;;19.80;98.90;;;;;;5059164;28;20433;-79
2023/06/24 03:13:41;;;;;;;75.93;14.53;;;19.80;99.10;;;;;;5058991;28;20410;-78
2023/06/24 03:16:12;;;;;;;74.07;18.17;;;19.80;99.90;;;;;;5076720;28;20533;-78
2023/06/24 03:18:41;;;;;;;73.87;18.07;;;19.70;99.90;;;;;;5076475;28;20794;-78
2023/06/24 03:21:08;;;;;;;73.70;13.93;;;19.70;99.90;;;;;;5076342;28;20487;-78
2023/06/24 03:23:34;;;;;;;75.67;14.80;;;19.70;99.90;;;;;;5075985;28;20413;-78
2023/06/24 03:25:59;;;;;;;74.20;15.70;;;19.70;99.90;;;;;;5059421;28;20450;-78
2023/06/24 03:28:25;;;;;;;76.97;16.10;;;19.70;99.90;;;;;;5076632;28;20180;-78
2023/06/24 03:30:51;;;;;;;73.73;16.40;;;19.70;99.90;;;;;;5058447;28;20190;-79
2023/06/24 03:33:18;;;;;;;74.33;14.57;;;19.60;99.90;;;;;;5076427;28;20395;-79
2023/06/24 03:35:44;;;;;;;73.30;13.57;;;19.60;99.90;;;;;;5076716;28;20166;-78
2023/06/24 03:38:09;;;;;;;74.20;12.67;;;19.70;99.90;;;;;;5076246;28;20829;-79
2023/06/24 03:40:35;;;;;;;73.87;13.00;;;19.60;99.90;;;;;;5076557;28;20399;-78
2023/06/24 03:43:01;;;;;;;72.23;13.23;;;19.70;99.90;;;;;;5076553;28;20174;-78
2023/06/24 03:45:26;;;;;;;74.40;14.27;;;19.70;99.90;;;;;;5075849;28;20194;-78
2023/06/24 03:47:52;;;;;;;71.70;12.53;;;19.70;99.90;;;;;;5076125;28;20567;-78
2023/06/24 03:50:18;;;;;;;78.23;13.53;;;19.70;99.90;;;;;;5075890;28;20632;-78
2023/06/24 03:52:46;;;;;;;72.83;13.63;;;19.70;99.90;;;;;;5076392;28;20168;-79
2023/06/24 03:55:15;;;;;;;74.77;13.77;;;19.60;99.90;;;;;;5058078;28;20638;-78
2023/06/24 03:57:41;;;;;;;75.20;13.37;;;19.70;99.90;;;;;;5058149;28;20431;-79
2023/06/24 04:00:13;;;;;;;72.17;11.97;;;19.70;99.90;;;;;;5075894;28;20422;-79
2023/06/24 04:02:38;;;;;;;73.53;13.10;;;19.70;99.90;;;;;;5076431;28;20152;-78
2023/06/24 04:05:06;;;;;;;77.37;14.73;;;19.70;99.90;;;;;;5075658;28;20446;-79
2023/06/24 04:07:32;;;;;;;73.77;12.90;;;19.80;99.90;;;;;;5091277;22;20203;-78
2023/06/24 04:09:57;;;;;;;78.10;14.67;;;19.80;99.90;;;;;;5074671;28;20414;-80
2023/06/24 04:12:23;;;;;;;74.20;12.90;;;19.80;99.90;;;;;;5073858;28;20167;-80
2023/06/24 04:14:49;;;;;;;73.30;12.13;;;19.80;99.90;;;;;;5074488;28;20168;-80
2023/06/24 04:17:15;;;;;;;74.87;12.83;;;19.80;99.90;;;;;;5074527;28;20421;-79
2023/06/24 04:19:41;;;;;;;76.10;12.37;;;19.80;99.90;;;;;;5074641;28;20175;-80
2023/06/24 04:22:07;;;;;;;79.00;13.00;;;19.80;99.90;;;;;;5057786;28;20220;-80
2023/06/24 04:24:33;;;;;;;72.50;13.40;;;19.90;99.90;;;;;;5075782;28;20449;-80
2023/06/24 04:26:59;;;;;;;78.13;12.17;;;19.80;99.90;;;;;;5057746;28;20879;-80
2023/06/24 04:29:24;;;;;;;73.60;12.07;;;19.70;99.90;;;;;;5075766;28;20154;-80
2023/06/24 04:31:50;;;;;;;74.77;12.47;;;19.70;99.90;;;;;;5075623;28;20168;-81
2023/06/24 04:34:16;;;;;;;74.23;13.03;;;19.80;99.90;;;;;;5057946;28;20160;-81
2023/06/24 04:36:42;;;;;;;73.60;13.43;;;20.10;99.90;;;;;;5057710;28;20216;-80
2023/06/24 04:39:08;;;;;;;75.20;15.57;;;20.30;99.90;;;;;;5075778;28;20842;-81
2023/06/24 04:41:33;;;;;;;75.97;21.50;;;20.50;99.90;;;;;;5075605;28;20680;-80
2023/06/24 04:43:59;;;;;;;81.03;21.73;;;20.70;99.70;;;;;;5075223;28;20165;-80
2023/06/24 04:46:25;;;;;;;77.50;20.60;;;20.90;97.00;;;;;;5075498;28;20243;-80
2023/06/24 04:56:20;;;;;;;71.77;12.70;;;21.30;79.60;;;;;;5074983;28;20461;-79
2023/06/24 04:58:46;;;;;;;76.07;14.17;;;21.50;72.10;;;;;;5056076;28;20430;-78
2023/06/24 05:01:11;;;;;;;75.10;15.37;;;21.50;67.30;;;;;;5074635;28;20746;-79
2023/06/24 05:03:37;;;;;;;80.97;28.67;;;21.70;59.60;;;;;;5074266;28;20619;-78
2023/06/24 05:06:03;;;;;;;79.77;26.33;;;21.90;56.40;;;;;;5074154;28;20579;-79
2023/06/24 05:08:28;;;;;;;78.97;29.33;;;22.00;50.20;;;;;;5073988;28;20618;-79
2023/06/24 05:10:54;;;;;;;76.83;29.00;;;22.10;43.80;;;;;;5074189;28;20167;-79
2023/06/24 05:13:23;;;;;;;82.70;34.37;;;22.00;39.00;;;;;;5074096;28;20160;-79
2023/06/24 05:15:48;;;;;;;77.20;25.90;;;21.90;38.20;;;;;;5073969;28;20574;-79
2023/06/24 05:18:14;;;;;;;76.33;22.90;;;21.80;39.50;;;;;;5073975;28;20471;-78
2023/06/24 05:20:40;;;;;;;76.90;20.53;;;21.60;43.60;;;;;;5074335;28;20178;-79
2023/06/24 05:23:05;;;;;;;76.03;19.33;;;21.50;46.60;;;;;;5074681;28;20402;-80
2023/06/24 05:25:32;;;;;;;73.50;15.10;;;21.50;48.90;;;;;;5077690;28;20666;-79
2023/06/24 05:27:57;;;;;;;73.27;15.53;;;21.40;51.20;;;;;;5077436;28;20176;-78
2023/06/24 05:30:23;;;;;;;75.00;14.93;;;21.30;55.90;;;;;;5077693;28;20448;-78
2023/06/24 05:32:49;;;;;;;76.57;15.93;;;21.20;62.50;;;;;;5077502;28;20647;-79
2023/06/24 05:35:15;;;;;;;74.03;15.67;;;21.00;78.80;;;;;;5059505;28;20581;-78
2023/06/24 05:37:40;;;;;;;73.57;15.80;;;20.80;86.00;;;;;;5077450;28;20471;-79
2023/06/24 05:40:07;;;;;;;77.00;14.30;;;20.70;84.30;;;;;;5077423;28;20168;-79
2023/06/24 05:42:33;;;;;;;74.67;16.30;;;20.80;85.70;;;;;;5077765;28;20218;-78
2023/06/24 05:45:02;;;;;;;73.97;15.90;;;20.80;86.40;;;;;;5077753;28;20504;-78
2023/06/24 05:47:28;;;;;;;75.57;20.27;;;20.80;87.90;;;;;;5077492;28;20184;-79
2023/06/24 05:49:53;;;;;;;73.97;20.30;;;20.70;90.80;;;;;;5077343;28;20406;-78
2023/06/24 05:52:19;;;;;;;80.10;22.07;;;20.70;93.80;;;;;;5077751;28;20167;-79
2023/06/24 05:54:45;;;;;;;81.47;22.37;;;20.70;95.30;;;;;;5077279;28;20187;-78
2023/06/24 05:57:10;;;;;;;79.30;22.43;;;20.70;95.70;;;;;;5077762;28;20183;-79
2023/06/24 05:59:36;;;;;;;87.00;19.07;;;20.80;94.70;;;;;;5077301;28;20164;-79
2023/06/24 06:02:05;;;;;;;74.03;17.20;;;20.90;91.70;;;;;;5077533;28;20218;-79
2023/06/24 06:04:30;;;;;;;76.00;17.23;;;20.90;91.80;;;;;;5077218;28;20175;-79
2023/06/24 06:06:56;;;;;;;75.17;13.87;;;21.00;87.30;;;;;;5077256;28;20402;-78
2023/06/24 06:09:22;;;;;;;77.87;17.40;;;21.10;83.60;;;;;;5059048;28;20192;-79
2023/06/24 06:11:48;;;;;;;76.47;16.27;;;21.20;78.50;;;;;;5058735;28;20172;-79
2023/06/24 06:14:14;;;;;;;72.93;13.30;;;21.30;82.20;;;;;;5076788;28;20405;-79
2023/06/24 06:16:39;;;;;;;76.20;13.53;;;21.30;71.10;;;;;;5076502;28;20225;-78
2023/06/24 06:19:05;;;;;;;77.73;23.57;;;21.40;70.40;;;;;;5076630;28;20164;-79
2023/06/24 06:21:32;;;;;;;74.67;17.50;;;21.50;53.40;;;;;;5076836;28;20160;-79
2023/06/24 06:23:57;;;;;;;78.50;20.67;;;21.50;58.50;;;;;;5077061;28;20394;-78
2023/06/24 06:26:23;;;;;;;74.97;18.23;;;21.60;52.00;;;;;;5076679;28;20970;-78
2023/06/24 06:28:49;;;;;;;78.97;18.60;;;21.60;53.60;;;;;;5076339;28;20180;-77
2023/06/24 06:31:15;;;;;;;76.30;19.80;;;21.70;48.80;;;;;;5076390;28;20473;-79
2023/06/24 06:33:43;;;;;;;84.40;35.73;;;21.70;50.10;;;;;;5076433;28;20818;-79
2023/06/24 06:36:08;;;;;;;88.93;34.90;;;21.70;42.10;;;;;;5075402;28;20482;-78
2023/06/24 06:38:34;;;;;;;85.33;36.47;;;21.70;42.10;;;;;;5076012;28;20520;-78
2023/06/24 06:41:00;;;;;;;82.67;31.87;;;21.70;34.70;;;;;;5076471;28;20658;-79
2023/06/24 06:43:26;;;;;;;75.70;16.37;;;21.90;29.70;;;;;;5076471;28;20229;-78
2023/06/24 06:45:52;;;;;;;76.43;8.67;;;22.00;23.40;;;;;;5076040;28;20446;-78
2023/06/24 06:48:17;;;;;;;72.43;7.33;;;22.10;7.70;;;;;;5075960;28;20180;-80
2023/06/24 06:50:44;;;;;;;74.60;9.17;;;22.10;6.80;;;;;;5076467;28;20164;-78
2023/06/24 06:53:10;;;;;;;72.90;8.10;;;22.20;7.40;;;;;;5076173;28;20160;-78
2023/06/24 06:55:37;;;;;;;74.40;8.30;;;22.20;5.70;;;;;;5057977;28;20952;-78
2023/06/24 06:58:03;;;;;;;71.00;7.50;;;22.30;7.80;;;;;;5075883;28;20188;-78
2023/06/24 07:00:28;;;;;;;68.67;6.43;;;22.30;8.40;;;;;;5076286;28;20398;-79
2023/06/24 07:02:54;;;;;;;76.50;6.90;;;22.20;2.80;;;;;;5076232;28;20168;-78
2023/06/24 07:05:20;;;;;;;75.33;7.23;;;22.00;1.00;;;;;;5076145;28;20194;-79
2023/06/24 07:07:46;;;;;;;73.17;6.20;;;21.90;1.00;;;;;;5075384;28;20258;-79
2023/06/24 07:10:12;;;;;;;72.73;7.50;;;22.00;2.30;;;;;;5075830;28;20156;-78
2023/06/24 07:12:38;;;;;;;71.30;7.67;;;21.90;1.00;;;;;;5075865;28;20394;-78
2023/06/24 07:15:04;;;;;;;72.47;7.77;;;21.90;1.00;;;;;;5076271;28;20398;-78
2023/06/24 07:17:30;;;;;;;72.87;7.07;;;21.90;1.00;;;;;;5075787;28;20501;-77
2023/06/24 07:19:56;;;;;;;74.73;9.60;;;22.00;2.80;;;;;;5075651;28;20503;-78
2023/06/24 07:22:21;;;;;;;72.97;7.43;;;22.10;7.40;;;;;;5075772;28;20160;-77
2023/06/24 07:24:47;;;;;;;72.63;7.87;;;22.20;4.10;;;;;;5075860;28;20326;-79
2023/06/24 07:27:12;;;;;;;71.80;6.70;;;22.30;4.60;;;;;;5075624;28;20181;-79
2023/06/24 07:29:40;;;;;;;73.17;7.40;;;22.30;1.00;;;;;;5075720;28;20169;-78
2023/06/24 07:32:07;;;;;;;83.60;7.67;;;22.30;1.10;;;;;;5075754;28;20159;-79
2023/06/24 07:34:33;;;;;;;73.00;7.40;;;22.40;4.90;;;;;;5075877;28;20408;-78
2023/06/24 07:36:58;;;;;;;70.50;7.27;;;22.50;1.00;;;;;;5075829;28;20427;-79
2023/06/24 07:39:24;;;;;;;75.53;8.63;;;22.60;1.00;;;;;;5076102;28;20543;-80
2023/06/24 07:41:50;;;;;;;73.87;7.60;;;22.50;1.00;;;;;;5076156;28;20166;-78
2023/06/24 07:44:15;;;;;;;69.70;7.30;;;22.50;1.00;;;;;;5074843;28;20155;-78
2023/06/24 07:46:41;;;;;;;73.50;7.00;;;22.60;1.00;;;;;;5056802;28;20163;-78
2023/06/24 07:49:09;;;;;;;71.90;7.37;;;22.70;1.00;;;;;;5075294;28;20205;-79
2023/06/24 07:51:35;;;;;;;70.90;7.00;;;22.70;1.00;;;;;;5074853;28;20203;-78
2023/06/24 07:54:01;;;;;;;75.30;8.07;;;22.60;1.00;;;;;;5074477;28;20398;-78
2023/06/24 07:56:26;;;;;;;71.77;7.90;;;22.60;1.00;;;;;;5074989;28;20511;-78
2023/06/24 07:58:52;;;;;;;72.70;7.60;;;22.60;1.00;;;;;;5074786;28;20659;-78
2023/06/24 08:01:18;;;;;;;75.47;7.30;;;22.60;1.00;;;;;;5075040;28;20255;-79
2023/06/24 08:03:44;;;;;;;71.33;7.10;;;22.60;1.00;;;;;;5075205;28;20437;-79
2023/06/24 08:06:09;;;;;;;72.17;6.60;;;22.60;1.00;;;;;;5075536;28;20249;-78
2023/06/24 08:08:35;;;;;;;74.27;6.97;;;22.80;1.00;;;;;;5074528;28;20585;-79
2023/06/24 08:11:03;;;;;;;72.50;7.30;;;22.80;1.00;;;;;;5074812;28;20156;-78
2023/06/24 08:13:28;;;;;;;71.90;7.07;;;22.90;1.00;;;;;;5074614;28;20428;-78
2023/06/24 08:15:54;;;;;;;71.77;6.90;;;22.80;1.00;;;;;;5075073;28;20877;-78
2023/06/24 08:18:20;;;;;;;72.90;7.10;;;22.90;1.00;;;;;;5074429;28;20191;-78
2023/06/24 08:20:45;;;;;;;72.90;7.23;;;22.90;1.00;;;;;;5074713;28;20168;-79
2023/06/24 08:23:11;;;;;;;72.00;6.97;;;22.90;1.00;;;;;;5075045;28;20165;-79
2023/06/24 08:25:37;;;;;;;72.97;6.77;;;22.90;1.00;;;;;;5075346;28;20188;-79
2023/06/24 08:28:03;;;;;;;72.50;6.90;;;22.90;1.00;;;;;;5057012;28;20655;-78
2023/06/24 08:30:29;;;;;;;71.47;6.67;;;22.90;1.00;;;;;;5074850;28;20398;-79
2023/06/24 08:32:55;;;;;;;75.67;7.83;;;23.00;1.00;;;;;;5056538;28;20646;-78
2023/06/24 08:35:20;;;;;;;75.90;7.80;;;23.10;1.00;;;;;;5074401;28;20255;-78
2023/06/24 08:37:46;;;;;;;73.10;6.57;;;23.10;1.00;;;;;;5074328;28;20442;-78
2023/06/24 08:40:12;;;;;;;72.83;7.53;;;23.20;1.00;;;;;;5056283;28;20175;-78
2023/06/24 08:42:38;;;;;;;76.20;8.43;;;23.30;1.00;;;;;;5074362;28;20168;-78
2023/06/24 08:45:03;;;;;;;73.30;7.80;;;23.30;1.00;;;;;;5074279;28;20195;-78
2023/06/24 08:47:30;;;;;;;75.63;7.30;;;23.40;1.00;;;;;;5074083;28;20184;-78
2023/06/24 08:50:03;;;;;;;74.07;7.87;;;23.40;1.00;;;;;;5075304;28;20920;-79
2023/06/24 08:52:31;;;;;;;73.40;7.77;;;23.40;1.00;;;;;;5075383;28;20394;-78
2023/06/24 08:54:59;;;;;;;74.10;8.20;;;23.50;1.00;;;;;;5056628;28;20426;-78
2023/06/24 08:57:25;;;;;;;76.70;7.73;;;23.50;1.00;;;;;;5074159;28;20422;-78
2023/06/24 08:59:53;;;;;;;75.37;9.37;;;23.50;1.00;;;;;;5077482;28;20532;-79
2023/06/24 09:02:19;;;;;;;73.23;7.27;;;23.50;1.00;;;;;;5078138;28;20405;-78
2023/06/24 09:04:44;;;;;;;73.20;7.00;;;23.70;1.00;;;;;;5077941;28;20806;-78
2023/06/24 09:07:11;;;;;;;71.73;7.47;;;23.70;1.00;;;;;;5077992;28;20433;-78
2023/06/24 09:09:46;;;;;;;80.53;7.53;;;23.80;1.00;;;;;;5078157;28;20175;-80
2023/06/24 09:12:14;;;;;;;75.40;7.70;;;23.90;1.00;;;;;;5078553;28;20380;-79
2023/06/24 09:14:40;;;;;;;71.87;7.53;;;23.90;1.00;;;;;;5077905;28;20489;-78
2023/06/24 09:17:09;;;;;;;72.10;7.97;;;24.00;1.00;;;;;;5078215;28;20429;-78
2023/06/24 09:19:39;;;;;;;79.40;9.07;;;24.00;1.00;;;;;;5078703;28;20391;-78
2023/06/24 09:22:16;;;;;;;72.87;6.97;;;24.10;1.00;;;;;;5078850;28;20827;-80
2023/06/24 09:24:42;;;;;;;69.90;6.43;;;24.30;1.00;;;;;;5079334;28;20432;-80
2023/06/24 09:27:07;;;;;;;72.43;6.67;;;24.40;1.00;;;;;;5080643;28;20476;-80
2023/06/24 09:29:35;;;;;;;71.60;6.60;;;24.60;1.00;;;;;;5080722;28;20391;-81
2023/06/24 09:32:04;;;;;;;71.97;7.53;;;24.70;1.00;;;;;;5080572;28;20906;-80
2023/06/24 09:34:31;;;;;;;71.80;6.87;;;24.80;1.00;;;;;;5083515;28;20933;-82
2023/06/24 09:36:58;;;;;;;72.70;6.70;;;25.00;1.00;;;;;;5082976;28;20412;-81
2023/06/24 09:39:29;;;;;;;76.23;6.63;;;25.20;1.00;;;;;;5083063;28;20487;-81
2023/06/24 09:42:00;;;;;;;73.10;6.93;;;25.30;1.00;;;;;;5083132;28;20389;-80
2023/06/24 09:44:27;;;;;;;75.93;7.53;;;25.50;1.00;;;;;;5080924;28;20385;-79
2023/06/24 09:46:52;;;;;;;74.60;8.00;;;25.60;1.00;;;;;;5062102;28;20432;-80
2023/06/24 09:49:18;;;;;;;72.40;6.60;;;25.70;1.00;;;;;;5080955;28;20426;-81
2023/06/24 09:51:49;;;;;;;70.50;5.23;;;25.80;1.00;;;;;;5063177;28;20193;-80
2023/06/24 09:54:16;;;;;;;71.50;6.43;;;26.10;1.00;;;;;;5063331;28;20784;-81
2023/06/24 09:56:50;;;;;;;72.60;10.53;;;26.40;1.00;;;;;;5081936;28;20504;-80
2023/06/24 09:59:19;;;;;;;74.90;12.17;;;26.60;1.00;;;;;;5081192;28;20399;-80
2023/06/24 10:01:47;;;;;;;70.27;7.90;;;26.60;1.00;;;;;;5063392;28;20421;-81
2023/06/24 10:04:19;;;;;;;70.83;5.83;;;26.30;1.00;;;;;;5062618;28;20414;-81
2023/06/24 10:06:45;;;;;;;71.50;4.80;;;26.30;1.00;;;;;;5081654;28;20535;-81
2023/06/24 10:09:13;;;;;;;73.20;4.60;;;26.30;1.00;;;;;;5125710;22;20557;-82
2023/06/24 10:11:39;;;;;;;69.17;4.33;;;26.60;1.00;;;;;;5044472;28;20418;-82
2023/06/24 10:14:05;;;;;;;71.57;4.90;;;27.00;1.00;;;;;;5045915;28;20403;-82
2023/06/24 10:16:31;;;;;;;69.97;4.70;;;27.40;1.00;;;;;;5045690;28;20453;-82
2023/06/24 10:19:02;;;;;;;69.60;4.17;;;27.40;1.00;;;;;;5044402;28;20507;-82
2023/06/24 10:21:47;;;;;;;72.10;4.83;;;27.50;1.00;;;;;;5044377;28;20150;-82
2023/06/24 10:24:13;;;;;;;71.77;5.00;;;27.70;1.00;;;;;;5041556;28;20767;-81
2023/06/24 10:26:40;;;;;;;70.67;6.70;;;28.00;1.00;;;;;;5043087;28;20440;-82
2023/06/24 10:29:05;;;;;;;69.40;5.83;;;28.00;1.00;;;;;;5043498;28;20170;-82
2023/06/24 10:31:40;;;;;;;73.40;6.10;;;28.20;1.00;;;;;;5043345;28;20422;-82
2023/06/24 10:34:28;;;;;;;71.97;6.30;;;28.40;1.00;;;;;;5044266;28;20199;-82
2023/06/24 10:37:03;;;;;;;70.37;6.23;;;28.60;1.00;;;;;;5042446;28;20803;-82
2023/06/24 10:39:45;;;;;;;71.37;6.37;;;28.60;1.00;;;;;;5042672;28;20380;-82
2023/06/24 10:42:23;;;;;;;71.30;6.83;;;28.70;1.00;;;;;;5043025;28;20412;-82
2023/06/24 10:44:50;;;;;;;73.90;6.40;;;28.70;1.00;;;;;;5042627;28;20443;-82
2023/06/24 10:47:17;;;;;;;72.70;6.27;;;28.50;1.00;;;;;;5043964;28;20424;-82
2023/06/24 10:49:43;;;;;;;72.20;7.07;;;28.80;1.00;;;;;;5042932;28;20392;-82
2023/06/24 10:52:12;;;;;;;72.90;5.20;;;28.70;1.00;;;;;;5041258;28;20911;-82
2023/06/24 10:54:39;;;;;;;72.67;6.17;;;28.60;1.00;;;;;;5041996;28;20462;-82
2023/06/24 10:57:06;;;;;;;70.97;8.37;;;28.80;1.00;;;;;;5041035;28;20431;-82
2023/06/24 10:59:35;;;;;;;72.60;7.77;;;29.00;1.00;;;;;;5042651;28;20794;-82
2023/06/24 11:02:01;;;;;;;74.17;6.60;;;29.20;1.00;;;;;;5043872;28;20401;-82
2023/06/24 11:04:27;;;;;;;73.47;7.30;;;29.50;1.00;;;;;;5043572;28;20409;-82
2023/06/24 11:07:02;;;;;;;71.27;5.53;;;29.70;1.00;;;;;;5043994;28;20412;-82
2023/06/24 11:09:28;;;;;;;73.07;6.20;;;29.70;1.00;;;;;;5043368;28;20180;-82
2023/06/24 11:11:54;;;;;;;72.00;5.80;;;29.90;1.00;;;;;;5044322;28;20396;-82
2023/06/24 11:14:20;;;;;;;70.60;7.07;;;30.30;1.00;;;;;;5044310;28;20189;-82
2023/06/24 11:16:46;;;;;;;71.40;7.03;;;30.50;1.00;;;;;;5044222;28;20400;-82
2023/06/24 11:19:13;;;;;;;73.20;9.00;;;30.70;1.00;;;;;;5043895;28;20495;-82
2023/06/24 11:21:38;;;;;;;70.90;8.70;;;30.80;1.00;;;;;;5042085;28;20180;-82
2023/06/24 11:24:05;;;;;;;72.57;9.37;;;30.90;1.00;;;;;;5043489;28;20475;-82
2023/06/24 11:26:30;;;;;;;75.77;11.90;;;30.80;1.00;;;;;;5043886;28;20216;-83
2023/06/24 11:28:56;;;;;;;72.00;9.77;;;30.60;1.00;;;;;;5042944;28;20472;-82
2023/06/24 11:31:25;;;;;;;73.90;11.67;;;30.40;1.00;;;;;;5043874;28;20166;-82
2023/06/24 11:33:51;;;;;;;73.07;10.97;;;30.70;1.00;;;;;;5043889;28;20184;-82
2023/06/24 11:36:20;;;;;;;74.37;8.87;;;30.70;1.00;;;;;;5042877;28;20400;-82
2023/06/24 11:38:47;;;;;;;72.90;12.07;;;30.60;1.00;;;;;;5042794;28;20185;-82
2023/06/24 11:41:13;;;;;;;72.87;12.10;;;30.50;1.00;;;;;;5042333;28;20400;-82
2023/06/24 11:43:47;;;;;;;75.33;12.00;;;30.60;1.00;;;;;;5044257;28;20405;-82
2023/06/24 11:46:39;;;;;;;73.47;12.50;;;30.70;1.00;;;;;;5042998;28;20931;-83
2023/06/24 11:49:08;;;;;;;72.37;11.27;;;30.50;1.00;;;;;;5044291;28;20472;-82
2023/06/24 11:51:38;;;;;;;71.67;7.30;;;30.50;1.00;;;;;;5044395;28;20454;-83
2023/06/24 11:54:05;;;;;;;72.50;9.30;;;30.40;1.00;;;;;;5043381;28;20408;-83
2023/06/24 11:56:45;;;;;;;73.33;12.07;;;30.70;1.00;;;;;;5042437;28;20407;-82
2023/06/24 11:59:26;;;;;;;73.60;10.40;;;30.90;1.00;;;;;;5043076;28;20392;-82
2023/06/24 12:01:57;;;;;;;74.90;10.00;;;30.90;1.00;;;;;;5041037;28;20408;-82
2023/06/24 12:04:33;;;;;;;73.10;11.73;;;30.70;1.00;;;;;;5042765;28;20427;-82
2023/06/24 12:06:59;;;;;;;77.97;10.67;;;30.90;1.00;;;;;;5043429;28;20427;-82
2023/06/24 12:09:41;;;;;;;70.87;8.37;;;31.00;1.00;;;;;;5041709;28;20499;-82
2023/06/24 12:12:07;;;;;;;72.73;9.67;;;30.70;1.00;;;;;;5042780;28;20443;-82
2023/06/24 12:14:33;;;;;;;73.07;8.70;;;30.70;1.00;;;;;;5041970;28;20408;-83
2023/06/24 12:17:02;;;;;;;72.13;11.67;;;30.70;1.00;;;;;;5043250;28;20477;-82
2023/06/24 12:19:27;;;;;;;72.13;11.37;;;30.60;1.00;;;;;;5042802;28;20162;-82
2023/06/24 12:21:53;;;;;;;75.07;11.47;;;30.80;1.00;;;;;;5043796;28;20400;-82
2023/06/24 12:24:19;;;;;;;75.53;11.77;;;30.90;1.00;;;;;;5043131;28;20161;-83
2023/06/24 12:26:46;;;;;;;74.80;8.57;;;31.20;1.00;;;;;;5043275;28;20177;-82
2023/06/24 12:29:12;;;;;;;71.40;7.67;;;31.30;1.00;;;;;;5045044;28;20225;-82
2023/06/24 12:31:42;;;;;;;72.57;10.63;;;31.10;1.00;;;;;;5042981;28;20396;-83
2023/06/24 12:34:07;;;;;;;72.10;7.00;;;31.00;1.00;;;;;;5042419;28;20157;-82
2023/06/24 12:36:33;;;;;;;72.13;7.30;;;31.10;1.00;;;;;;5042165;28;20412;-82
2023/06/24 12:38:59;;;;;;;73.63;9.20;;;31.30;1.00;;;;;;5042199;28;20187;-82
2023/06/24 12:41:26;;;;;;;71.30;10.50;;;31.40;1.00;;;;;;5042036;28;20192;-82
2023/06/24 12:43:52;;;;;;;71.60;10.40;;;31.70;1.00;;;;;;5042216;28;20552;-82
2023/06/24 12:46:18;;;;;;;73.83;10.20;;;31.30;1.00;;;;;;5042358;28;20459;-82